createdAt,value
2022-12-16T00:04:02.823Z,21.23
2022-12-16T00:06:36.969Z,22.17
2022-12-16T00:09:07.171Z,24.80
2022-12-16T00:11:37.350Z,26.10
2022-12-16T00:14:07.442Z,24.85
2022-12-16T00:16:38.126Z,25.92
2022-12-16T00:19:08.341Z,22.60
2022-12-16T00:21:41.117Z,28.08
2022-12-16T00:24:11.097Z,24.27
2022-12-16T00:26:41.274Z,28.75
2022-12-16T00:29:11.357Z,32.00
2022-12-16T00:31:41.395Z,31.63
2022-12-16T00:34:11.857Z,38.20
2022-12-16T00:36:44.530Z,31.75
2022-12-16T00:39:14.989Z,31.08
2022-12-16T00:41:45.231Z,32.30
2022-12-16T00:44:15.401Z,34.55
2022-12-16T00:46:46.003Z,33.30
2022-12-16T00:49:16.235Z,35.15
2022-12-16T00:51:49.907Z,32.78
2022-12-16T00:54:20.447Z,31.20
2022-12-16T00:56:50.701Z,34.80
2022-12-16T00:59:22.244Z,34.72
2022-12-16T01:01:52.586Z,31.13
2022-12-16T01:04:22.672Z,34.05
2022-12-16T01:06:55.204Z,35.03
2022-12-16T01:09:25.569Z,38.42
2022-12-16T01:11:55.849Z,32.13
2022-12-16T01:14:26.210Z,37.15
2022-12-16T01:16:56.602Z,35.42
2022-12-16T01:19:26.812Z,35.08
2022-12-16T01:21:59.399Z,35.25
2022-12-16T01:24:29.439Z,34.30
2022-12-16T01:26:59.414Z,35.03
2022-12-16T01:29:29.392Z,32.97
2022-12-16T01:31:59.432Z,35.10
2022-12-16T01:34:29.673Z,34.97
2022-12-16T01:37:05.361Z,33.42
2022-12-16T01:39:35.596Z,35.05
2022-12-16T01:42:05.581Z,38.08
2022-12-16T01:44:37.743Z,32.25
2022-12-16T01:47:09.750Z,34.60
2022-12-16T01:49:44.092Z,32.90
2022-12-16T01:52:21.494Z,33.40
2022-12-16T01:54:55.551Z,40.78
2022-12-16T01:57:30.246Z,35.78
2022-12-16T02:00:00.859Z,35.72
2022-12-16T02:02:30.930Z,39.22
2022-12-16T02:05:13.717Z,39.33
2022-12-16T02:07:46.349Z,35.80
2022-12-16T02:10:16.651Z,35.88
2022-12-16T02:12:55.107Z,39.70
2022-12-16T02:18:10.423Z,34.00
2022-12-16T02:23:43.088Z,30.60
2022-12-16T02:26:34.246Z,34.30
2022-12-16T02:29:24.331Z,32.50
2022-12-16T02:32:03.503Z,34.88
2022-12-16T02:34:44.104Z,36.97
2022-12-16T02:37:21.532Z,36.05
2022-12-16T02:39:56.443Z,32.45
2022-12-16T02:42:33.839Z,37.15
2022-12-16T02:45:06.563Z,37.38
2022-12-16T02:47:39.188Z,32.47
2022-12-16T02:50:16.799Z,34.67
2022-12-16T02:52:47.089Z,35.70
2022-12-16T02:55:18.006Z,41.78
2022-12-16T02:58:05.539Z,36.90
2022-12-16T03:00:44.090Z,35.55
2022-12-16T03:03:26.074Z,36.35
2022-12-16T03:05:58.712Z,36.65
2022-12-16T03:08:34.158Z,31.75
2022-12-16T03:11:08.333Z,31.98
2022-12-16T03:13:44.130Z,38.33
2022-12-16T03:16:17.665Z,34.95
2022-12-16T03:18:54.796Z,35.03
2022-12-16T03:21:29.263Z,37.97
2022-12-16T03:24:03.287Z,35.08
2022-12-16T03:26:37.785Z,35.85
2022-12-16T03:29:13.013Z,35.50
2022-12-16T03:31:48.830Z,38.88
2022-12-16T03:34:35.316Z,35.33
2022-12-16T03:37:07.416Z,37.47
2022-12-16T03:39:41.931Z,31.90
2022-12-16T03:42:13.158Z,40.65
2022-12-16T03:44:43.357Z,34.30
2022-12-16T03:47:18.340Z,38.47
2022-12-16T03:52:24.441Z,33.28
2022-12-16T03:54:55.353Z,35.33
2022-12-16T03:57:25.328Z,35.55
2022-12-16T03:59:55.323Z,37.83
2022-12-16T04:02:25.525Z,35.08
2022-12-16T04:04:59.879Z,32.33
2022-12-16T04:07:29.849Z,34.70
2022-12-16T04:10:00.023Z,34.20
2022-12-16T04:12:42.603Z,32.17
2022-12-16T04:15:26.109Z,34.95
2022-12-16T04:18:08.796Z,36.08
2022-12-16T04:20:58.098Z,34.45
2022-12-16T04:23:43.067Z,32.97
2022-12-16T04:28:42.858Z,33.05
2022-12-16T04:31:12.884Z,33.33
2022-12-16T04:33:56.308Z,33.70
2022-12-16T04:36:41.309Z,29.67
2022-12-16T04:39:23.710Z,27.65
2022-12-16T04:42:08.001Z,25.85
2022-12-16T04:44:50.401Z,26.25
2022-12-16T04:47:32.933Z,21.42
2022-12-16T04:50:15.550Z,24.70
2022-12-16T04:53:00.544Z,22.05
2022-12-16T04:55:42.994Z,23.10
2022-12-16T04:58:25.432Z,19.42
2022-12-16T05:01:07.980Z,19.88
2022-12-16T05:03:51.011Z,20.55
2022-12-16T05:06:33.660Z,17.70
2022-12-16T05:09:19.187Z,24.05
2022-12-16T05:12:01.915Z,24.20
2022-12-16T05:14:44.678Z,18.95
2022-12-16T05:17:27.401Z,19.67
2022-12-16T05:20:10.006Z,19.17
2022-12-16T05:22:52.439Z,14.88
2022-12-16T05:25:37.596Z,14.68
2022-12-16T05:28:20.377Z,12.65
2022-12-16T05:31:02.925Z,16.17
2022-12-16T05:33:48.151Z,15.05
2022-12-16T05:36:30.512Z,15.18
2022-12-16T05:39:12.930Z,13.35
2022-12-16T05:41:58.147Z,15.23
2022-12-16T05:44:40.563Z,17.13
2022-12-16T05:47:23.279Z,16.63
2022-12-16T05:50:05.966Z,15.07
2022-12-16T05:52:48.166Z,15.50
2022-12-16T05:55:34.072Z,17.65
2022-12-16T05:58:19.365Z,16.17
2022-12-16T06:03:44.204Z,18.25
2022-12-16T06:06:27.017Z,16.67
2022-12-16T06:09:09.559Z,13.80
2022-12-16T06:11:52.347Z,16.55
2022-12-16T06:14:37.529Z,15.23
2022-12-16T06:17:20.016Z,14.10
2022-12-16T06:20:02.874Z,14.05
2022-12-16T06:22:45.624Z,17.05
2022-12-16T06:25:27.988Z,13.18
2022-12-16T06:28:10.313Z,12.93
2022-12-16T06:30:55.548Z,11.63
2022-12-16T06:33:38.162Z,10.40
2022-12-16T06:36:21.886Z,15.45
2022-12-16T06:39:04.475Z,25.42
2022-12-16T06:41:47.035Z,19.75
2022-12-16T06:44:29.628Z,15.32
2022-12-16T06:47:14.568Z,11.73
2022-12-16T06:49:57.164Z,16.95
2022-12-16T06:52:39.535Z,14.02
2022-12-16T06:55:22.436Z,15.48
2022-12-16T06:58:09.711Z,14.27
2022-12-16T07:00:52.534Z,16.55
2022-12-16T07:03:37.816Z,12.20
2022-12-16T07:06:20.918Z,11.07
2022-12-16T07:09:03.537Z,12.68
2022-12-16T07:11:45.917Z,10.52
2022-12-16T07:14:28.274Z,11.00
2022-12-16T07:17:15.328Z,8.65
2022-12-16T07:20:02.268Z,8.27
2022-12-16T07:22:44.862Z,9.57
2022-12-16T07:25:35.915Z,15.80
2022-12-16T07:28:18.288Z,9.93
2022-12-16T07:31:00.666Z,11.70
2022-12-16T07:33:43.031Z,14.20
2022-12-16T07:36:28.031Z,12.43
2022-12-16T07:41:52.555Z,12.32
2022-12-16T07:44:34.944Z,14.70
2022-12-16T07:47:17.390Z,18.80
2022-12-16T07:49:59.827Z,28.92
2022-12-16T07:52:44.848Z,16.15
2022-12-16T07:55:27.271Z,10.15
2022-12-16T07:58:09.893Z,10.73
2022-12-16T08:00:52.483Z,15.98
2022-12-16T08:03:38.454Z,11.25
2022-12-16T08:06:21.417Z,13.48
2022-12-16T08:09:06.597Z,11.15
2022-12-16T08:11:49.006Z,10.80
2022-12-16T08:14:31.795Z,10.05
2022-12-16T08:17:14.341Z,11.93
2022-12-16T08:19:56.778Z,10.25
2022-12-16T08:22:39.146Z,8.38
2022-12-16T08:25:24.332Z,11.98
2022-12-16T08:28:10.339Z,10.25
2022-12-16T08:30:52.870Z,11.13
2022-12-16T08:33:35.595Z,10.68
2022-12-16T08:36:30.138Z,8.70
2022-12-16T08:39:12.767Z,10.15
2022-12-16T08:41:57.758Z,12.75
2022-12-16T08:44:40.494Z,9.98
2022-12-16T08:47:23.045Z,9.88
2022-12-16T08:50:05.486Z,9.10
2022-12-16T08:52:47.948Z,8.50
2022-12-16T08:55:30.463Z,9.48
2022-12-16T08:58:15.523Z,9.00
2022-12-16T09:01:03.185Z,8.82
2022-12-16T09:03:49.130Z,9.50
2022-12-16T09:06:36.967Z,7.35
2022-12-16T09:09:22.560Z,9.50
2022-12-16T09:12:05.202Z,9.18
2022-12-16T09:14:50.301Z,8.77
2022-12-16T09:17:33.772Z,8.00
2022-12-16T09:20:16.557Z,9.63
2022-12-16T09:22:59.046Z,11.75
2022-12-16T09:25:41.723Z,10.52
2022-12-16T09:28:24.127Z,10.07
2022-12-16T09:31:09.268Z,11.48
2022-12-16T09:33:51.715Z,11.40
2022-12-16T09:36:34.146Z,11.80
2022-12-16T09:39:16.517Z,11.15
2022-12-16T09:42:00.351Z,10.25
2022-12-16T09:44:56.503Z,11.43
2022-12-16T09:47:50.062Z,8.00
2022-12-16T09:50:37.552Z,10.40
2022-12-16T09:53:24.279Z,11.52
2022-12-16T09:56:07.355Z,11.82
2022-12-16T09:58:55.057Z,16.75
2022-12-16T10:01:37.981Z,16.60
2022-12-16T10:04:23.441Z,14.25
2022-12-16T10:07:09.991Z,15.43
2022-12-16T10:10:03.244Z,15.15
2022-12-16T10:12:52.633Z,10.07
2022-12-16T10:15:46.363Z,14.13
2022-12-16T10:18:41.900Z,15.93
2022-12-16T10:21:33.783Z,22.08
2022-12-16T10:24:23.472Z,25.55
2022-12-16T10:27:13.188Z,14.48
2022-12-16T10:29:59.644Z,11.68
2022-12-16T10:32:47.634Z,13.02
2022-12-16T10:35:37.220Z,9.27
2022-12-16T10:38:29.889Z,9.25
2022-12-16T10:41:12.567Z,9.10
2022-12-16T10:43:59.972Z,6.97
2022-12-16T10:46:48.459Z,11.20
2022-12-16T10:49:32.173Z,10.43
2022-12-16T10:52:15.032Z,14.15
2022-12-16T10:55:05.965Z,14.65
2022-12-16T10:57:55.131Z,16.25
2022-12-16T11:00:55.144Z,11.35
2022-12-16T11:03:40.728Z,11.55
2022-12-16T11:06:24.017Z,8.80
2022-12-16T11:09:06.557Z,7.90
2022-12-16T11:11:51.768Z,8.70
2022-12-16T11:14:38.289Z,7.53
2022-12-16T11:17:35.555Z,9.52
2022-12-16T11:20:29.464Z,8.20
2022-12-16T11:23:31.869Z,7.78
2022-12-16T11:26:23.632Z,7.57
2022-12-16T11:29:30.328Z,8.32
2022-12-16T11:32:20.806Z,7.47
2022-12-16T11:35:09.216Z,10.90
2022-12-16T11:37:53.915Z,7.45
2022-12-16T11:40:37.654Z,9.10
2022-12-16T11:43:21.510Z,8.98
2022-12-16T11:46:07.913Z,5.32
2022-12-16T11:48:57.165Z,8.15
2022-12-16T11:51:42.295Z,5.97
2022-12-16T11:54:32.742Z,6.50
2022-12-16T11:57:17.599Z,7.70
2022-12-16T12:00:07.378Z,6.05
2022-12-16T12:02:57.211Z,7.10
2022-12-16T12:05:46.329Z,5.20
2022-12-16T12:08:37.731Z,7.00
2022-12-16T12:11:27.429Z,6.45
2022-12-16T12:14:19.859Z,8.43
2022-12-16T12:17:15.655Z,6.35
2022-12-16T12:20:12.477Z,7.30
2022-12-16T12:22:56.085Z,7.47
2022-12-16T12:25:46.237Z,5.43
2022-12-16T12:28:43.583Z,5.45
2022-12-16T12:31:40.668Z,7.57
2022-12-16T12:34:31.332Z,5.93
2022-12-16T12:37:24.104Z,6.00
2022-12-16T12:40:12.146Z,7.00
2022-12-16T12:43:00.798Z,7.68
2022-12-16T12:46:01.739Z,6.45
2022-12-16T12:48:54.306Z,6.20
2022-12-16T12:51:46.456Z,4.80
2022-12-16T12:54:40.303Z,6.78
2022-12-16T12:57:24.994Z,6.55
2022-12-16T13:02:59.171Z,4.47
2022-12-16T13:05:44.354Z,6.47
2022-12-16T13:08:56.727Z,6.38
2022-12-16T13:11:41.984Z,4.30
2022-12-16T13:14:54.171Z,3.10
2022-12-16T13:17:50.630Z,5.63
2022-12-16T13:20:51.642Z,3.78
2022-12-16T13:23:48.262Z,5.28
2022-12-16T13:26:32.622Z,22.08
2022-12-16T13:29:32.890Z,11.18
2022-12-16T13:32:17.812Z,5.13
2022-12-16T13:35:00.339Z,5.70
2022-12-16T13:37:43.500Z,5.45
2022-12-16T13:40:35.232Z,5.30
2022-12-16T13:43:23.280Z,7.40
2022-12-16T13:46:32.690Z,6.65
2022-12-16T13:49:55.888Z,5.15
2022-12-16T13:52:51.453Z,4.15
2022-12-16T13:55:39.127Z,5.30
2022-12-16T13:58:50.333Z,9.93
2022-12-16T14:01:43.619Z,8.55
2022-12-16T14:04:28.647Z,5.90
2022-12-16T14:07:19.926Z,4.32
2022-12-16T14:10:06.887Z,8.65
2022-12-16T14:13:14.702Z,5.00
2022-12-16T14:16:07.081Z,4.32
2022-12-16T14:19:02.469Z,5.32
2022-12-16T14:21:53.815Z,4.57
2022-12-16T14:24:40.066Z,8.63
2022-12-16T14:27:32.661Z,5.25
2022-12-16T14:30:24.343Z,5.00
2022-12-16T14:33:07.220Z,4.43
2022-12-16T14:35:52.287Z,4.13
2022-12-16T14:38:41.323Z,7.70
2022-12-16T14:41:27.695Z,6.63
2022-12-16T14:44:10.398Z,7.38
2022-12-16T14:46:52.919Z,6.53
2022-12-16T14:49:38.377Z,8.13
2022-12-16T14:52:32.616Z,5.75
2022-12-16T14:55:20.401Z,5.90
2022-12-16T14:58:17.767Z,9.20
2022-12-16T15:01:00.560Z,6.45
2022-12-16T15:03:52.292Z,5.95
2022-12-16T15:06:41.471Z,5.22
2022-12-16T15:09:34.531Z,5.45
2022-12-16T15:12:17.367Z,5.07
2022-12-16T15:14:59.886Z,8.30
2022-12-16T15:17:44.906Z,8.02
2022-12-16T15:20:34.181Z,9.90
2022-12-16T15:23:16.745Z,9.70
2022-12-16T15:26:05.599Z,11.70
2022-12-16T15:28:55.287Z,9.75
2022-12-16T15:31:40.648Z,8.50
2022-12-16T15:34:41.694Z,7.50
2022-12-16T15:37:35.921Z,8.52
2022-12-16T15:40:18.957Z,12.00
2022-12-16T15:43:23.048Z,12.18
2022-12-16T15:46:06.139Z,14.50
2022-12-16T15:48:50.905Z,10.13
2022-12-16T15:51:38.392Z,12.32
2022-12-16T15:54:21.281Z,12.30
2022-12-16T15:57:03.921Z,15.95
2022-12-16T15:59:51.194Z,16.10
2022-12-16T16:02:36.821Z,14.48
2022-12-16T16:05:27.357Z,15.25
2022-12-16T16:08:09.777Z,10.90
2022-12-16T16:10:52.482Z,19.45
2022-12-16T16:13:35.274Z,14.00
2022-12-16T16:16:21.319Z,13.35
2022-12-16T16:19:03.814Z,14.95
2022-12-16T16:21:46.350Z,12.57
2022-12-16T16:24:28.999Z,16.73
2022-12-16T16:27:13.165Z,13.02
2022-12-16T16:29:55.846Z,16.20
2022-12-16T16:32:41.313Z,16.98
2022-12-16T16:35:23.863Z,15.70
2022-12-16T16:38:06.228Z,19.40
2022-12-16T16:40:51.085Z,15.80
2022-12-16T16:46:16.564Z,16.40
2022-12-16T16:49:01.996Z,15.98
2022-12-16T16:51:44.790Z,16.10
2022-12-16T16:54:27.421Z,13.65
2022-12-16T16:57:10.124Z,13.65
2022-12-16T16:59:52.640Z,12.05
2022-12-16T17:02:40.884Z,17.60
2022-12-16T17:05:27.050Z,14.35
2022-12-16T17:08:09.676Z,12.43
2022-12-16T17:10:52.407Z,13.25
2022-12-16T17:13:35.126Z,12.77
2022-12-16T17:16:17.872Z,13.55
2022-12-16T17:19:00.378Z,11.90
2022-12-16T17:21:45.771Z,14.68
2022-12-16T17:24:28.408Z,18.88
2022-12-16T17:27:10.790Z,17.17
2022-12-16T17:29:53.309Z,15.07
2022-12-16T17:32:35.698Z,12.38
2022-12-16T17:35:18.260Z,13.38
2022-12-16T17:38:03.284Z,16.35
2022-12-16T17:40:45.962Z,19.35
2022-12-16T17:43:28.658Z,22.85
2022-12-16T17:46:12.748Z,20.33
2022-12-16T17:48:55.189Z,17.23
2022-12-16T17:51:37.625Z,14.57
2022-12-16T17:54:27.602Z,17.00
2022-12-16T17:57:11.794Z,14.65
2022-12-16T17:59:54.791Z,12.85
2022-12-16T18:02:37.567Z,15.40
2022-12-16T18:05:20.735Z,18.40
2022-12-16T18:08:03.149Z,17.17
2022-12-16T18:10:48.123Z,15.23
2022-12-16T18:13:30.762Z,16.63
2022-12-16T18:16:13.454Z,21.20
2022-12-16T18:18:55.932Z,20.45
2022-12-16T18:21:38.397Z,18.17
2022-12-16T18:24:22.275Z,18.60
2022-12-16T18:27:07.264Z,16.23
2022-12-16T18:29:49.681Z,20.20
2022-12-16T18:32:35.249Z,16.05
2022-12-16T18:35:18.070Z,19.98
2022-12-16T18:38:00.648Z,17.63
2022-12-16T18:40:54.956Z,16.75
2022-12-16T18:43:39.951Z,17.25
2022-12-16T18:46:22.463Z,19.10
2022-12-16T18:49:07.978Z,22.13
2022-12-16T18:51:50.499Z,27.75
2022-12-16T18:54:33.167Z,25.55
2022-12-16T18:57:15.592Z,22.15
2022-12-16T19:00:01.049Z,26.75
2022-12-16T19:02:43.602Z,22.55
2022-12-16T19:05:26.148Z,28.20
2022-12-16T19:08:13.996Z,26.15
2022-12-16T19:10:57.260Z,26.70
2022-12-16T19:13:40.310Z,27.27
2022-12-16T19:16:25.317Z,34.30
2022-12-16T19:21:51.752Z,29.52
2022-12-16T19:24:34.847Z,32.50
2022-12-16T19:27:17.430Z,51.03
2022-12-16T19:29:59.812Z,55.78
2022-12-16T19:32:44.827Z,50.45
2022-12-16T19:38:09.632Z,51.30
2022-12-16T19:40:52.350Z,43.45
2022-12-16T19:43:36.400Z,38.08
2022-12-16T19:46:19.247Z,35.45
2022-12-16T19:49:04.364Z,34.15
2022-12-16T19:54:28.968Z,32.60
2022-12-16T19:57:11.388Z,32.33
2022-12-16T19:59:53.826Z,34.45
2022-12-16T20:02:38.902Z,31.92
2022-12-16T20:05:24.311Z,33.95
2022-12-16T20:08:07.150Z,36.88
2022-12-16T20:10:51.423Z,38.78
2022-12-16T20:13:34.272Z,39.20
2022-12-16T20:16:17.302Z,38.53
2022-12-16T20:18:59.696Z,34.33
2022-12-16T20:21:48.779Z,35.15
2022-12-16T20:24:31.747Z,39.83
2022-12-16T20:27:14.356Z,33.47
2022-12-16T20:29:56.994Z,36.83
2022-12-16T20:32:39.388Z,40.97
2022-12-16T20:35:22.131Z,35.78
2022-12-16T20:38:08.659Z,33.85
2022-12-16T20:40:51.414Z,31.35
2022-12-16T20:43:34.167Z,38.05
2022-12-16T20:46:16.807Z,41.28
2022-12-16T20:49:01.134Z,34.65
2022-12-16T20:51:44.098Z,33.53
2022-12-16T20:54:29.506Z,43.08
2022-12-16T20:57:12.957Z,30.27
2022-12-16T20:59:55.574Z,39.50
2022-12-16T21:02:38.876Z,40.33
2022-12-16T21:05:22.857Z,39.92
2022-12-16T21:08:05.470Z,40.22
2022-12-16T21:10:50.454Z,37.83
2022-12-16T21:16:17.140Z,41.03
2022-12-16T21:18:59.669Z,43.58
2022-12-16T21:21:42.064Z,40.95
2022-12-16T21:24:24.469Z,34.22
2022-12-16T21:27:09.432Z,41.53
2022-12-16T21:32:36.385Z,37.15
2022-12-16T21:35:22.545Z,41.88
2022-12-16T21:38:07.204Z,34.90
2022-12-16T21:40:49.673Z,37.50
2022-12-16T21:43:34.718Z,36.55
2022-12-16T21:46:17.315Z,41.22
2022-12-16T21:48:59.690Z,39.40
2022-12-16T21:51:42.252Z,41.33
2022-12-16T21:54:24.631Z,41.90
2022-12-16T21:57:07.243Z,39.50
2022-12-16T21:59:52.260Z,53.40
2022-12-16T22:02:38.843Z,47.85
2022-12-16T22:05:24.009Z,44.30
2022-12-16T22:08:06.423Z,49.42
2022-12-16T22:10:48.833Z,43.25
2022-12-16T22:13:31.245Z,51.50
2022-12-16T22:16:16.333Z,43.15
2022-12-16T22:18:58.783Z,46.92
2022-12-16T22:21:41.259Z,46.85
2022-12-16T22:24:23.839Z,49.28
2022-12-16T22:27:06.203Z,47.75
2022-12-16T22:29:48.588Z,69.88
2022-12-16T22:32:33.562Z,49.35
2022-12-16T22:37:58.284Z,47.78
2022-12-16T22:40:40.739Z,38.38
2022-12-16T22:43:23.139Z,47.88
2022-12-16T22:46:14.173Z,43.55
2022-12-16T22:49:00.778Z,43.70
2022-12-16T22:51:43.428Z,44.03
2022-12-16T22:54:40.660Z,49.72
2022-12-16T22:57:23.064Z,47.05
2022-12-16T23:00:05.454Z,45.40
2022-12-16T23:02:48.039Z,49.45
2022-12-16T23:05:33.019Z,51.10
2022-12-16T23:10:58.611Z,51.47
2022-12-16T23:13:42.516Z,50.42
2022-12-16T23:16:25.505Z,42.25
2022-12-16T23:19:07.997Z,44.63
2022-12-16T23:21:53.014Z,40.55
2022-12-16T23:24:36.204Z,44.17
2022-12-16T23:27:18.609Z,45.95
2022-12-16T23:30:01.026Z,44.20
2022-12-16T23:32:43.403Z,45.10
2022-12-16T23:35:25.944Z,45.05
2022-12-16T23:38:17.963Z,48.85
2022-12-16T23:41:00.352Z,47.85
2022-12-16T23:43:43.018Z,39.10
2022-12-16T23:46:25.627Z,46.72
2022-12-16T23:49:08.250Z,45.30
2022-12-16T23:51:51.809Z,41.60
2022-12-16T23:54:36.934Z,37.88
2022-12-16T23:57:19.454Z,35.80
